BDU weather

Bardufoss Airport
MÃ¥lselv, Troms, Norway

Public forecast

Using degrees Celsius for public forecast. Weather courtesy of forecast.io.

METAR (pilot weather report)

Retrieved 2019/05/25 16:20 UTC (10 minutes ago):

ENDU 251620Z AUTO 30006KT 270V010 9999 OVC036/// 06/M02 Q1006 RMK WIND 1100FT 32007KT WIND 2200FT 35010KT

TAF (pilot weather forecast)

Retrieved 2019/05/25 12:57 UTC (4 hours ago):

TAF ENDU 251100Z 2512/2612 34008KT 9999 FEW015 BKN030